sensor_id;sensor_type;location;lat;lon;timestamp;P1;durP1;ratioP1;P2;durP2;ratioP2
35550;SDS011;21655;46.056;13.616;2022-07-23T00:01:32;16.48;;;11.65;;
35550;SDS011;21655;46.056;13.616;2022-07-23T00:03:58;17.50;;;11.57;;
35550;SDS011;21655;46.056;13.616;2022-07-23T00:06:24;16.45;;;11.68;;
35550;SDS011;21655;46.056;13.616;2022-07-23T00:08:50;17.40;;;11.07;;
35550;SDS011;21655;46.056;13.616;2022-07-23T00:11:16;17.15;;;11.10;;
35550;SDS011;21655;46.056;13.616;2022-07-23T00:13:41;15.73;;;11.40;;
35550;SDS011;21655;46.056;13.616;2022-07-23T00:16:07;18.05;;;11.77;;
35550;SDS011;21655;46.056;13.616;2022-07-23T00:18:33;17.30;;;11.85;;
35550;SDS011;21655;46.056;13.616;2022-07-23T00:20:58;23.90;;;12.50;;
35550;SDS011;21655;46.056;13.616;2022-07-23T00:23:24;17.95;;;11.38;;
35550;SDS011;21655;46.056;13.616;2022-07-23T00:25:50;14.63;;;11.73;;
35550;SDS011;21655;46.056;13.616;2022-07-23T00:28:16;15.52;;;11.88;;
35550;SDS011;21655;46.056;13.616;2022-07-23T00:30:43;16.88;;;12.30;;
35550;SDS011;21655;46.056;13.616;2022-07-23T00:33:09;18.13;;;11.90;;
35550;SDS011;21655;46.056;13.616;2022-07-23T00:35:35;20.48;;;12.15;;
35550;SDS011;21655;46.056;13.616;2022-07-23T00:38:03;14.90;;;11.80;;
35550;SDS011;21655;46.056;13.616;2022-07-23T00:40:30;17.10;;;12.68;;
35550;SDS011;21655;46.056;13.616;2022-07-23T00:42:56;17.52;;;12.50;;
35550;SDS011;21655;46.056;13.616;2022-07-23T00:45:22;17.38;;;12.02;;
35550;SDS011;21655;46.056;13.616;2022-07-23T00:47:47;19.40;;;12.40;;
35550;SDS011;21655;46.056;13.616;2022-07-23T00:50:13;18.55;;;12.18;;
35550;SDS011;21655;46.056;13.616;2022-07-23T00:52:40;18.95;;;12.05;;
35550;SDS011;21655;46.056;13.616;2022-07-23T00:55:06;17.95;;;11.57;;
35550;SDS011;21655;46.056;13.616;2022-07-23T00:57:33;16.83;;;11.27;;
35550;SDS011;21655;46.056;13.616;2022-07-23T00:59:59;19.55;;;11.70;;
35550;SDS011;21655;46.056;13.616;2022-07-23T01:02:25;18.73;;;11.90;;
35550;SDS011;21655;46.056;13.616;2022-07-23T01:04:51;15.52;;;12.35;;
35550;SDS011;21655;46.056;13.616;2022-07-23T01:07:17;18.05;;;12.63;;
35550;SDS011;21655;46.056;13.616;2022-07-23T01:09:44;15.32;;;11.75;;
35550;SDS011;21655;46.056;13.616;2022-07-23T01:12:09;16.98;;;10.82;;
35550;SDS011;21655;46.056;13.616;2022-07-23T01:14:35;17.10;;;12.32;;
35550;SDS011;21655;46.056;13.616;2022-07-23T01:17:01;23.67;;;12.50;;
35550;SDS011;21655;46.056;13.616;2022-07-23T01:19:26;19.50;;;12.20;;
35550;SDS011;21655;46.056;13.616;2022-07-23T01:21:52;18.17;;;11.98;;
35550;SDS011;21655;46.056;13.616;2022-07-23T01:24:19;14.20;;;11.05;;
35550;SDS011;21655;46.056;13.616;2022-07-23T01:26:45;22.17;;;11.63;;
35550;SDS011;21655;46.056;13.616;2022-07-23T01:29:12;17.17;;;11.90;;
35550;SDS011;21655;46.056;13.616;2022-07-23T01:31:37;23.42;;;12.93;;
35550;SDS011;21655;46.056;13.616;2022-07-23T01:34:03;18.42;;;12.57;;
35550;SDS011;21655;46.056;13.616;2022-07-23T01:36:29;19.48;;;12.38;;
35550;SDS011;21655;46.056;13.616;2022-07-23T01:38:55;15.82;;;11.77;;
35550;SDS011;21655;46.056;13.616;2022-07-23T01:41:21;19.83;;;12.00;;
35550;SDS011;21655;46.056;13.616;2022-07-23T01:43:47;18.75;;;12.32;;
35550;SDS011;21655;46.056;13.616;2022-07-23T01:46:12;17.67;;;12.23;;
35550;SDS011;21655;46.056;13.616;2022-07-23T01:48:37;17.60;;;11.52;;
35550;SDS011;21655;46.056;13.616;2022-07-23T01:51:03;15.80;;;11.90;;
35550;SDS011;21655;46.056;13.616;2022-07-23T01:53:29;18.25;;;11.98;;
35550;SDS011;21655;46.056;13.616;2022-07-23T01:55:56;14.98;;;12.43;;
35550;SDS011;21655;46.056;13.616;2022-07-23T01:58:22;20.38;;;12.48;;
35550;SDS011;21655;46.056;13.616;2022-07-23T02:00:47;20.92;;;12.50;;
35550;SDS011;21655;46.056;13.616;2022-07-23T02:03:13;16.75;;;11.93;;
35550;SDS011;21655;46.056;13.616;2022-07-23T02:05:38;17.77;;;11.63;;
35550;SDS011;21655;46.056;13.616;2022-07-23T02:08:04;17.60;;;12.27;;
35550;SDS011;21655;46.056;13.616;2022-07-23T02:10:30;15.00;;;11.88;;
35550;SDS011;21655;46.056;13.616;2022-07-23T02:12:55;17.08;;;12.23;;
35550;SDS011;21655;46.056;13.616;2022-07-23T02:15:20;16.52;;;12.38;;
35550;SDS011;21655;46.056;13.616;2022-07-23T02:17:46;17.77;;;12.32;;
35550;SDS011;21655;46.056;13.616;2022-07-23T02:20:12;20.52;;;12.48;;
35550;SDS011;21655;46.056;13.616;2022-07-23T02:22:37;16.05;;;13.10;;
35550;SDS011;21655;46.056;13.616;2022-07-23T02:25:04;15.70;;;11.90;;
35550;SDS011;21655;46.056;13.616;2022-07-23T02:27:30;19.35;;;11.90;;
35550;SDS011;21655;46.056;13.616;2022-07-23T02:29:56;20.90;;;12.73;;
35550;SDS011;21655;46.056;13.616;2022-07-23T02:32:22;20.02;;;12.98;;
35550;SDS011;21655;46.056;13.616;2022-07-23T02:34:48;19.08;;;13.02;;
35550;SDS011;21655;46.056;13.616;2022-07-23T02:37:13;19.27;;;12.90;;
35550;SDS011;21655;46.056;13.616;2022-07-23T02:39:38;19.33;;;12.65;;
35550;SDS011;21655;46.056;13.616;2022-07-23T02:42:04;19.02;;;12.32;;
35550;SDS011;21655;46.056;13.616;2022-07-23T02:44:29;16.08;;;12.18;;
35550;SDS011;21655;46.056;13.616;2022-07-23T02:46:55;15.68;;;12.85;;
35550;SDS011;21655;46.056;13.616;2022-07-23T02:49:20;20.05;;;13.35;;
35550;SDS011;21655;46.056;13.616;2022-07-23T02:51:46;17.65;;;11.98;;
35550;SDS011;21655;46.056;13.616;2022-07-23T02:54:11;18.50;;;12.48;;
35550;SDS011;21655;46.056;13.616;2022-07-23T02:56:37;17.38;;;11.88;;
35550;SDS011;21655;46.056;13.616;2022-07-23T02:59:02;16.58;;;12.02;;
35550;SDS011;21655;46.056;13.616;2022-07-23T03:01:28;18.83;;;12.73;;
35550;SDS011;21655;46.056;13.616;2022-07-23T03:03:53;16.42;;;12.00;;
35550;SDS011;21655;46.056;13.616;2022-07-23T03:06:18;18.25;;;12.93;;
35550;SDS011;21655;46.056;13.616;2022-07-23T03:08:44;20.60;;;13.18;;
35550;SDS011;21655;46.056;13.616;2022-07-23T03:11:09;23.52;;;13.35;;
35550;SDS011;21655;46.056;13.616;2022-07-23T03:13:38;21.85;;;12.23;;
35550;SDS011;21655;46.056;13.616;2022-07-23T03:16:05;17.98;;;12.57;;
35550;SDS011;21655;46.056;13.616;2022-07-23T03:18:30;20.73;;;12.45;;
35550;SDS011;21655;46.056;13.616;2022-07-23T03:20:56;18.88;;;12.65;;
35550;SDS011;21655;46.056;13.616;2022-07-23T03:23:21;16.05;;;12.20;;
35550;SDS011;21655;46.056;13.616;2022-07-23T03:25:47;15.98;;;12.45;;
35550;SDS011;21655;46.056;13.616;2022-07-23T03:28:15;19.60;;;12.77;;
35550;SDS011;21655;46.056;13.616;2022-07-23T03:30:42;18.60;;;12.23;;
35550;SDS011;21655;46.056;13.616;2022-07-23T03:33:10;19.83;;;13.65;;
35550;SDS011;21655;46.056;13.616;2022-07-23T03:35:35;21.02;;;13.25;;
35550;SDS011;21655;46.056;13.616;2022-07-23T03:38:01;20.13;;;13.18;;
35550;SDS011;21655;46.056;13.616;2022-07-23T03:40:26;18.38;;;12.93;;
35550;SDS011;21655;46.056;13.616;2022-07-23T03:42:52;18.15;;;13.27;;
35550;SDS011;21655;46.056;13.616;2022-07-23T03:45:17;23.13;;;14.48;;
35550;SDS011;21655;46.056;13.616;2022-07-23T03:47:42;18.60;;;13.00;;
35550;SDS011;21655;46.056;13.616;2022-07-23T03:50:09;21.02;;;13.77;;
35550;SDS011;21655;46.056;13.616;2022-07-23T03:52:35;18.90;;;14.00;;
35550;SDS011;21655;46.056;13.616;2022-07-23T03:55:01;18.65;;;13.48;;
35550;SDS011;21655;46.056;13.616;2022-07-23T03:57:27;16.38;;;12.75;;
35550;SDS011;21655;46.056;13.616;2022-07-23T03:59:52;18.70;;;12.55;;
35550;SDS011;21655;46.056;13.616;2022-07-23T04:02:18;22.73;;;13.10;;
35550;SDS011;21655;46.056;13.616;2022-07-23T04:04:43;20.88;;;13.60;;
35550;SDS011;21655;46.056;13.616;2022-07-23T04:07:09;17.88;;;12.93;;
35550;SDS011;21655;46.056;13.616;2022-07-23T04:09:34;21.25;;;14.05;;
35550;SDS011;21655;46.056;13.616;2022-07-23T04:11:59;19.65;;;13.55;;
35550;SDS011;21655;46.056;13.616;2022-07-23T04:14:26;16.95;;;13.07;;
35550;SDS011;21655;46.056;13.616;2022-07-23T04:16:51;18.08;;;12.88;;
35550;SDS011;21655;46.056;13.616;2022-07-23T04:19:16;17.35;;;13.02;;
35550;SDS011;21655;46.056;13.616;2022-07-23T04:21:42;18.33;;;12.95;;
35550;SDS011;21655;46.056;13.616;2022-07-23T04:24:07;19.52;;;13.38;;
35550;SDS011;21655;46.056;13.616;2022-07-23T04:26:33;24.00;;;13.73;;
35550;SDS011;21655;46.056;13.616;2022-07-23T04:28:58;17.20;;;12.88;;
35550;SDS011;21655;46.056;13.616;2022-07-23T04:31:24;18.30;;;13.20;;
35550;SDS011;21655;46.056;13.616;2022-07-23T04:33:49;20.80;;;13.43;;
35550;SDS011;21655;46.056;13.616;2022-07-23T04:36:14;18.25;;;12.02;;
35550;SDS011;21655;46.056;13.616;2022-07-23T04:38:40;17.40;;;13.25;;
35550;SDS011;21655;46.056;13.616;2022-07-23T04:41:05;17.55;;;13.60;;
35550;SDS011;21655;46.056;13.616;2022-07-23T04:43:31;16.48;;;12.85;;
35550;SDS011;21655;46.056;13.616;2022-07-23T04:45:56;21.77;;;14.63;;
35550;SDS011;21655;46.056;13.616;2022-07-23T04:48:22;16.67;;;12.88;;
35550;SDS011;21655;46.056;13.616;2022-07-23T04:50:47;20.80;;;13.90;;
35550;SDS011;21655;46.056;13.616;2022-07-23T04:53:13;20.25;;;13.45;;
35550;SDS011;21655;46.056;13.616;2022-07-23T04:55:38;18.45;;;13.52;;
35550;SDS011;21655;46.056;13.616;2022-07-23T04:58:03;16.10;;;12.70;;
35550;SDS011;21655;46.056;13.616;2022-07-23T05:00:29;15.85;;;11.98;;
35550;SDS011;21655;46.056;13.616;2022-07-23T05:02:54;17.33;;;12.48;;
35550;SDS011;21655;46.056;13.616;2022-07-23T05:05:20;18.52;;;12.20;;
35550;SDS011;21655;46.056;13.616;2022-07-23T05:07:45;14.85;;;12.30;;
35550;SDS011;21655;46.056;13.616;2022-07-23T05:10:11;15.63;;;11.77;;
35550;SDS011;21655;46.056;13.616;2022-07-23T05:12:36;20.35;;;12.40;;
35550;SDS011;21655;46.056;13.616;2022-07-23T05:15:02;14.35;;;11.70;;
35550;SDS011;21655;46.056;13.616;2022-07-23T05:17:27;20.05;;;12.38;;
35550;SDS011;21655;46.056;13.616;2022-07-23T05:19:52;15.73;;;11.85;;
35550;SDS011;21655;46.056;13.616;2022-07-23T05:22:18;18.25;;;12.98;;
35550;SDS011;21655;46.056;13.616;2022-07-23T05:24:43;19.13;;;12.70;;
35550;SDS011;21655;46.056;13.616;2022-07-23T05:27:09;19.88;;;12.90;;
35550;SDS011;21655;46.056;13.616;2022-07-23T05:29:34;14.57;;;12.15;;
35550;SDS011;21655;46.056;13.616;2022-07-23T05:32:00;15.98;;;11.80;;
35550;SDS011;21655;46.056;13.616;2022-07-23T05:34:25;15.35;;;12.25;;
35550;SDS011;21655;46.056;13.616;2022-07-23T05:36:51;15.65;;;12.40;;
35550;SDS011;21655;46.056;13.616;2022-07-23T05:39:16;15.52;;;12.35;;
35550;SDS011;21655;46.056;13.616;2022-07-23T05:41:41;18.55;;;13.05;;
35550;SDS011;21655;46.056;13.616;2022-07-23T05:44:08;16.73;;;12.77;;
35550;SDS011;21655;46.056;13.616;2022-07-23T05:46:33;19.20;;;13.73;;
35550;SDS011;21655;46.056;13.616;2022-07-23T05:48:59;14.85;;;12.85;;
35550;SDS011;21655;46.056;13.616;2022-07-23T05:51:24;16.17;;;12.82;;
35550;SDS011;21655;46.056;13.616;2022-07-23T05:53:50;23.17;;;13.95;;
35550;SDS011;21655;46.056;13.616;2022-07-23T05:56:17;18.05;;;12.90;;
35550;SDS011;21655;46.056;13.616;2022-07-23T05:58:43;22.40;;;13.73;;
35550;SDS011;21655;46.056;13.616;2022-07-23T06:01:09;22.63;;;12.63;;
35550;SDS011;21655;46.056;13.616;2022-07-23T06:03:34;17.30;;;12.68;;
35550;SDS011;21655;46.056;13.616;2022-07-23T06:06:00;21.08;;;12.52;;
35550;SDS011;21655;46.056;13.616;2022-07-23T06:08:26;18.13;;;13.10;;
35550;SDS011;21655;46.056;13.616;2022-07-23T06:10:51;19.48;;;13.43;;
35550;SDS011;21655;46.056;13.616;2022-07-23T06:13:17;20.40;;;12.32;;
35550;SDS011;21655;46.056;13.616;2022-07-23T06:15:43;22.27;;;12.63;;
35550;SDS011;21655;46.056;13.616;2022-07-23T06:18:09;16.90;;;13.38;;
35550;SDS011;21655;46.056;13.616;2022-07-23T06:20:34;19.27;;;14.10;;
35550;SDS011;21655;46.056;13.616;2022-07-23T06:22:59;20.60;;;13.20;;
35550;SDS011;21655;46.056;13.616;2022-07-23T06:25:25;18.10;;;12.50;;
35550;SDS011;21655;46.056;13.616;2022-07-23T06:27:50;16.95;;;12.75;;
35550;SDS011;21655;46.056;13.616;2022-07-23T06:30:16;24.05;;;12.15;;
35550;SDS011;21655;46.056;13.616;2022-07-23T06:32:42;21.90;;;12.80;;
35550;SDS011;21655;46.056;13.616;2022-07-23T06:35:08;19.02;;;12.63;;
35550;SDS011;21655;46.056;13.616;2022-07-23T06:37:34;16.17;;;12.18;;
35550;SDS011;21655;46.056;13.616;2022-07-23T06:39:59;18.13;;;12.50;;
35550;SDS011;21655;46.056;13.616;2022-07-23T06:42:25;16.50;;;12.13;;
35550;SDS011;21655;46.056;13.616;2022-07-23T06:44:50;16.38;;;12.27;;
35550;SDS011;21655;46.056;13.616;2022-07-23T06:47:15;22.35;;;12.80;;
35550;SDS011;21655;46.056;13.616;2022-07-23T06:49:41;19.83;;;12.60;;
35550;SDS011;21655;46.056;13.616;2022-07-23T06:52:07;19.23;;;12.48;;
35550;SDS011;21655;46.056;13.616;2022-07-23T06:54:33;16.73;;;11.20;;
35550;SDS011;21655;46.056;13.616;2022-07-23T06:56:58;14.65;;;11.43;;
35550;SDS011;21655;46.056;13.616;2022-07-23T06:59:24;16.92;;;11.30;;
35550;SDS011;21655;46.056;13.616;2022-07-23T07:01:49;16.50;;;11.70;;
35550;SDS011;21655;46.056;13.616;2022-07-23T07:04:14;20.98;;;12.23;;
35550;SDS011;21655;46.056;13.616;2022-07-23T07:06:40;19.63;;;11.63;;
35550;SDS011;21655;46.056;13.616;2022-07-23T07:09:06;17.70;;;11.10;;
35550;SDS011;21655;46.056;13.616;2022-07-23T07:11:31;14.82;;;11.13;;
35550;SDS011;21655;46.056;13.616;2022-07-23T07:13:57;17.70;;;11.15;;
35550;SDS011;21655;46.056;13.616;2022-07-23T07:16:22;15.82;;;11.10;;
35550;SDS011;21655;46.056;13.616;2022-07-23T07:18:47;15.52;;;11.52;;
35550;SDS011;21655;46.056;13.616;2022-07-23T07:21:13;17.80;;;10.75;;
35550;SDS011;21655;46.056;13.616;2022-07-23T07:23:38;16.83;;;10.48;;
35550;SDS011;21655;46.056;13.616;2022-07-23T07:26:04;15.50;;;10.52;;
35550;SDS011;21655;46.056;13.616;2022-07-23T07:28:29;18.55;;;11.02;;
35550;SDS011;21655;46.056;13.616;2022-07-23T07:30:55;16.20;;;11.75;;
35550;SDS011;21655;46.056;13.616;2022-07-23T07:33:20;14.18;;;11.27;;
35550;SDS011;21655;46.056;13.616;2022-07-23T07:35:46;13.60;;;11.00;;
35550;SDS011;21655;46.056;13.616;2022-07-23T07:38:12;16.17;;;10.93;;
35550;SDS011;21655;46.056;13.616;2022-07-23T07:40:37;13.73;;;10.57;;
35550;SDS011;21655;46.056;13.616;2022-07-23T07:43:03;14.82;;;11.05;;
35550;SDS011;21655;46.056;13.616;2022-07-23T07:45:28;15.18;;;10.63;;
35550;SDS011;21655;46.056;13.616;2022-07-23T07:47:54;16.45;;;11.07;;
35550;SDS011;21655;46.056;13.616;2022-07-23T07:50:19;18.60;;;11.30;;
35550;SDS011;21655;46.056;13.616;2022-07-23T07:52:46;14.20;;;11.35;;
35550;SDS011;21655;46.056;13.616;2022-07-23T07:55:11;14.27;;;10.45;;
35550;SDS011;21655;46.056;13.616;2022-07-23T07:57:37;15.15;;;10.80;;
35550;SDS011;21655;46.056;13.616;2022-07-23T08:00:04;16.02;;;11.05;;
35550;SDS011;21655;46.056;13.616;2022-07-23T08:02:39;13.95;;;11.52;;
35550;SDS011;21655;46.056;13.616;2022-07-23T08:05:18;14.10;;;11.02;;
35550;SDS011;21655;46.056;13.616;2022-07-23T08:07:48;12.02;;;9.68;;
35550;SDS011;21655;46.056;13.616;2022-07-23T08:10:13;17.88;;;10.18;;
35550;SDS011;21655;46.056;13.616;2022-07-23T08:12:43;13.25;;;9.48;;
35550;SDS011;21655;46.056;13.616;2022-07-23T08:15:10;15.73;;;9.52;;
35550;SDS011;21655;46.056;13.616;2022-07-23T08:17:36;11.75;;;9.73;;
35550;SDS011;21655;46.056;13.616;2022-07-23T08:20:02;17.50;;;9.88;;
35550;SDS011;21655;46.056;13.616;2022-07-23T08:23:32;16.42;;;10.13;;
35550;SDS011;21655;46.056;13.616;2022-07-23T08:25:31;11.85;;;9.88;;
35550;SDS011;21655;46.056;13.616;2022-07-23T08:27:59;14.50;;;9.85;;
35550;SDS011;21655;46.056;13.616;2022-07-23T08:30:26;17.10;;;10.55;;
35550;SDS011;21655;46.056;13.616;2022-07-23T08:32:59;14.38;;;10.18;;
35550;SDS011;21655;46.056;13.616;2022-07-23T08:37:54;13.53;;;10.33;;
35550;SDS011;21655;46.056;13.616;2022-07-23T08:40:20;16.13;;;10.45;;
35550;SDS011;21655;46.056;13.616;2022-07-23T08:42:49;13.68;;;10.07;;
35550;SDS011;21655;46.056;13.616;2022-07-23T08:45:16;11.50;;;9.40;;
35550;SDS011;21655;46.056;13.616;2022-07-23T08:47:48;13.40;;;9.32;;
35550;SDS011;21655;46.056;13.616;2022-07-23T08:50:14;16.92;;;11.10;;
35550;SDS011;21655;46.056;13.616;2022-07-23T08:52:40;14.15;;;10.00;;
35550;SDS011;21655;46.056;13.616;2022-07-23T08:55:07;18.40;;;11.00;;
35550;SDS011;21655;46.056;13.616;2022-07-23T08:57:33;16.42;;;10.85;;
35550;SDS011;21655;46.056;13.616;2022-07-23T08:59:58;17.15;;;11.75;;
35550;SDS011;21655;46.056;13.616;2022-07-23T09:02:24;17.52;;;12.07;;
35550;SDS011;21655;46.056;13.616;2022-07-23T09:04:49;15.88;;;12.80;;
35550;SDS011;21655;46.056;13.616;2022-07-23T09:07:14;17.13;;;13.70;;
35550;SDS011;21655;46.056;13.616;2022-07-23T09:09:40;21.92;;;13.60;;
35550;SDS011;21655;46.056;13.616;2022-07-23T09:12:06;16.58;;;13.60;;
35550;SDS011;21655;46.056;13.616;2022-07-23T09:14:41;16.73;;;12.98;;
35550;SDS011;21655;46.056;13.616;2022-07-23T09:17:12;15.82;;;13.70;;
35550;SDS011;21655;46.056;13.616;2022-07-23T09:19:39;18.33;;;14.23;;
35550;SDS011;21655;46.056;13.616;2022-07-23T09:22:18;14.07;;;12.65;;
35550;SDS011;21655;46.056;13.616;2022-07-23T09:25:09;15.02;;;11.55;;
35550;SDS011;21655;46.056;13.616;2022-07-23T09:27:47;13.95;;;8.52;;
35550;SDS011;21655;46.056;13.616;2022-07-23T09:30:14;15.65;;;10.20;;
35550;SDS011;21655;46.056;13.616;2022-07-23T09:32:41;11.57;;;9.65;;
35550;SDS011;21655;46.056;13.616;2022-07-23T09:35:07;14.93;;;9.48;;
35550;SDS011;21655;46.056;13.616;2022-07-23T09:37:33;13.60;;;9.32;;
35550;SDS011;21655;46.056;13.616;2022-07-23T09:40:05;15.18;;;10.60;;
35550;SDS011;21655;46.056;13.616;2022-07-23T09:42:36;14.63;;;10.98;;
35550;SDS011;21655;46.056;13.616;2022-07-23T09:45:02;14.35;;;11.32;;
35550;SDS011;21655;46.056;13.616;2022-07-23T09:47:29;11.90;;;10.70;;
35550;SDS011;21655;46.056;13.616;2022-07-23T09:50:00;12.93;;;10.38;;
35550;SDS011;21655;46.056;13.616;2022-07-23T09:52:29;13.40;;;10.25;;
35550;SDS011;21655;46.056;13.616;2022-07-23T09:54:58;15.32;;;10.95;;
35550;SDS011;21655;46.056;13.616;2022-07-23T09:57:25;15.32;;;10.93;;
35550;SDS011;21655;46.056;13.616;2022-07-23T09:59:51;11.82;;;9.80;;
35550;SDS011;21655;46.056;13.616;2022-07-23T10:02:17;12.50;;;11.00;;
35550;SDS011;21655;46.056;13.616;2022-07-23T10:04:43;12.48;;;10.35;;
35550;SDS011;21655;46.056;13.616;2022-07-23T10:07:09;10.93;;;8.65;;
35550;SDS011;21655;46.056;13.616;2022-07-23T10:09:36;14.10;;;8.43;;
35550;SDS011;21655;46.056;13.616;2022-07-23T10:12:05;11.60;;;7.32;;
35550;SDS011;21655;46.056;13.616;2022-07-23T10:14:47;13.23;;;8.40;;
35550;SDS011;21655;46.056;13.616;2022-07-23T10:17:13;11.82;;;7.72;;
35550;SDS011;21655;46.056;13.616;2022-07-23T10:19:38;10.27;;;8.88;;
35550;SDS011;21655;46.056;13.616;2022-07-23T10:22:06;9.35;;;8.15;;
35550;SDS011;21655;46.056;13.616;2022-07-23T10:37:51;15.18;;;7.75;;
35550;SDS011;21655;46.056;13.616;2022-07-23T10:40:37;8.75;;;5.95;;
35550;SDS011;21655;46.056;13.616;2022-07-23T10:43:34;9.63;;;5.18;;
35550;SDS011;21655;46.056;13.616;2022-07-23T10:57:10;7.47;;;5.43;;
35550;SDS011;21655;46.056;13.616;2022-07-23T11:02:47;8.55;;;5.28;;
35550;SDS011;21655;46.056;13.616;2022-07-23T11:05:18;9.52;;;6.68;;
35550;SDS011;21655;46.056;13.616;2022-07-23T11:10:33;7.85;;;5.18;;
35550;SDS011;21655;46.056;13.616;2022-07-23T11:23:58;10.68;;;5.97;;
35550;SDS011;21655;46.056;13.616;2022-07-23T11:32:18;6.35;;;4.32;;
35550;SDS011;21655;46.056;13.616;2022-07-23T11:34:47;8.40;;;3.95;;
35550;SDS011;21655;46.056;13.616;2022-07-23T11:39:59;8.20;;;5.40;;
35550;SDS011;21655;46.056;13.616;2022-07-23T11:42:26;8.85;;;6.13;;
35550;SDS011;21655;46.056;13.616;2022-07-23T11:44:52;8.27;;;6.30;;
35550;SDS011;21655;46.056;13.616;2022-07-23T11:47:21;7.07;;;5.05;;
35550;SDS011;21655;46.056;13.616;2022-07-23T11:49:56;6.78;;;5.07;;
35550;SDS011;21655;46.056;13.616;2022-07-23T11:52:26;9.40;;;7.43;;
35550;SDS011;21655;46.056;13.616;2022-07-23T11:55:00;10.00;;;8.15;;
35550;SDS011;21655;46.056;13.616;2022-07-23T11:57:28;10.02;;;8.00;;
35550;SDS011;21655;46.056;13.616;2022-07-23T11:59:56;15.20;;;11.30;;
35550;SDS011;21655;46.056;13.616;2022-07-23T12:02:23;20.90;;;18.73;;
35550;SDS011;21655;46.056;13.616;2022-07-23T12:04:50;25.45;;;22.13;;
35550;SDS011;21655;46.056;13.616;2022-07-23T12:07:36;29.17;;;22.67;;
35550;SDS011;21655;46.056;13.616;2022-07-23T12:10:05;29.23;;;22.38;;
35550;SDS011;21655;46.056;13.616;2022-07-23T12:13:07;29.88;;;26.55;;
35550;SDS011;21655;46.056;13.616;2022-07-23T12:18:09;37.08;;;30.00;;
35550;SDS011;21655;46.056;13.616;2022-07-23T12:20:40;34.65;;;30.13;;
35550;SDS011;21655;46.056;13.616;2022-07-23T12:23:08;36.72;;;31.67;;
35550;SDS011;21655;46.056;13.616;2022-07-23T12:25:36;35.67;;;30.20;;
35550;SDS011;21655;46.056;13.616;2022-07-23T12:33:02;25.27;;;20.77;;
35550;SDS011;21655;46.056;13.616;2022-07-23T12:35:30;26.40;;;20.98;;
35550;SDS011;21655;46.056;13.616;2022-07-23T12:38:00;27.83;;;23.13;;
35550;SDS011;21655;46.056;13.616;2022-07-23T12:40:29;23.05;;;20.65;;
35550;SDS011;21655;46.056;13.616;2022-07-23T12:45:27;26.65;;;21.27;;
35550;SDS011;21655;46.056;13.616;2022-07-23T12:53:07;20.77;;;16.33;;
35550;SDS011;21655;46.056;13.616;2022-07-23T12:55:38;17.55;;;13.68;;
35550;SDS011;21655;46.056;13.616;2022-07-23T12:58:13;16.65;;;12.95;;
35550;SDS011;21655;46.056;13.616;2022-07-23T13:03:27;21.25;;;12.85;;
35550;SDS011;21655;46.056;13.616;2022-07-23T13:05:56;16.58;;;12.45;;
35550;SDS011;21655;46.056;13.616;2022-07-23T13:08:22;10.70;;;8.35;;
35550;SDS011;21655;46.056;13.616;2022-07-23T13:10:49;13.23;;;9.10;;
35550;SDS011;21655;46.056;13.616;2022-07-23T13:13:16;7.35;;;5.80;;
35550;SDS011;21655;46.056;13.616;2022-07-23T13:15:45;12.23;;;9.80;;
35550;SDS011;21655;46.056;13.616;2022-07-23T13:18:10;13.85;;;10.63;;
35550;SDS011;21655;46.056;13.616;2022-07-23T13:20:36;14.68;;;12.52;;
35550;SDS011;21655;46.056;13.616;2022-07-23T13:23:03;16.85;;;12.48;;
35550;SDS011;21655;46.056;13.616;2022-07-23T13:25:30;15.43;;;11.82;;
35550;SDS011;21655;46.056;13.616;2022-07-23T13:27:55;12.85;;;10.88;;
35550;SDS011;21655;46.056;13.616;2022-07-23T13:30:21;12.98;;;10.85;;
35550;SDS011;21655;46.056;13.616;2022-07-23T13:32:47;10.35;;;6.85;;
35550;SDS011;21655;46.056;13.616;2022-07-23T13:35:12;8.57;;;6.63;;
35550;SDS011;21655;46.056;13.616;2022-07-23T13:37:38;10.80;;;7.07;;
35550;SDS011;21655;46.056;13.616;2022-07-23T13:40:03;10.95;;;6.93;;
35550;SDS011;21655;46.056;13.616;2022-07-23T13:42:29;9.07;;;7.35;;
35550;SDS011;21655;46.056;13.616;2022-07-23T13:44:55;9.90;;;7.50;;
35550;SDS011;21655;46.056;13.616;2022-07-23T13:47:20;8.45;;;7.15;;
35550;SDS011;21655;46.056;13.616;2022-07-23T13:49:46;7.88;;;7.07;;
35550;SDS011;21655;46.056;13.616;2022-07-23T13:52:11;11.57;;;7.18;;
35550;SDS011;21655;46.056;13.616;2022-07-23T13:54:37;9.60;;;5.88;;
35550;SDS011;21655;46.056;13.616;2022-07-23T13:57:02;7.78;;;5.50;;
35550;SDS011;21655;46.056;13.616;2022-07-23T13:59:28;7.07;;;5.00;;
35550;SDS011;21655;46.056;13.616;2022-07-23T14:01:54;6.97;;;4.60;;
35550;SDS011;21655;46.056;13.616;2022-07-23T14:04:20;5.28;;;4.00;;
35550;SDS011;21655;46.056;13.616;2022-07-23T14:06:46;11.15;;;5.10;;
35550;SDS011;21655;46.056;13.616;2022-07-23T14:09:11;10.75;;;5.30;;
35550;SDS011;21655;46.056;13.616;2022-07-23T14:11:37;7.18;;;4.82;;
35550;SDS011;21655;46.056;13.616;2022-07-23T14:14:03;7.05;;;5.35;;
35550;SDS011;21655;46.056;13.616;2022-07-23T14:16:29;6.55;;;4.55;;
35550;SDS011;21655;46.056;13.616;2022-07-23T14:18:55;7.55;;;6.00;;
35550;SDS011;21655;46.056;13.616;2022-07-23T14:21:20;9.07;;;7.35;;
35550;SDS011;21655;46.056;13.616;2022-07-23T14:23:46;11.82;;;7.85;;
35550;SDS011;21655;46.056;13.616;2022-07-23T14:26:12;9.32;;;7.28;;
35550;SDS011;21655;46.056;13.616;2022-07-23T14:28:37;11.77;;;7.25;;
35550;SDS011;21655;46.056;13.616;2022-07-23T14:31:03;8.90;;;7.43;;
35550;SDS011;21655;46.056;13.616;2022-07-23T14:33:28;12.73;;;7.35;;
35550;SDS011;21655;46.056;13.616;2022-07-23T14:35:53;13.07;;;7.45;;
35550;SDS011;21655;46.056;13.616;2022-07-23T14:38:19;8.68;;;6.88;;
35550;SDS011;21655;46.056;13.616;2022-07-23T14:40:44;8.40;;;6.90;;
35550;SDS011;21655;46.056;13.616;2022-07-23T14:43:10;9.25;;;7.22;;
35550;SDS011;21655;46.056;13.616;2022-07-23T14:45:35;6.75;;;6.05;;
35550;SDS011;21655;46.056;13.616;2022-07-23T14:48:01;9.38;;;7.40;;
35550;SDS011;21655;46.056;13.616;2022-07-23T14:50:27;8.88;;;6.70;;
35550;SDS011;21655;46.056;13.616;2022-07-23T14:52:53;8.32;;;6.65;;
35550;SDS011;21655;46.056;13.616;2022-07-23T14:55:19;9.52;;;5.00;;
35550;SDS011;21655;46.056;13.616;2022-07-23T14:57:45;9.05;;;5.07;;
35550;SDS011;21655;46.056;13.616;2022-07-23T15:00:10;6.05;;;4.60;;
35550;SDS011;21655;46.056;13.616;2022-07-23T15:02:36;5.28;;;4.20;;
35550;SDS011;21655;46.056;13.616;2022-07-23T15:05:02;6.93;;;3.95;;
35550;SDS011;21655;46.056;13.616;2022-07-23T15:07:28;5.95;;;4.28;;
35550;SDS011;21655;46.056;13.616;2022-07-23T15:09:55;6.63;;;4.10;;
35550;SDS011;21655;46.056;13.616;2022-07-23T15:12:21;4.72;;;3.58;;
35550;SDS011;21655;46.056;13.616;2022-07-23T15:14:46;4.90;;;3.83;;
35550;SDS011;21655;46.056;13.616;2022-07-23T15:17:12;5.13;;;3.60;;
35550;SDS011;21655;46.056;13.616;2022-07-23T15:19:37;6.13;;;3.50;;
35550;SDS011;21655;46.056;13.616;2022-07-23T15:22:03;6.55;;;3.03;;